Time;durP1;ratioP1;P1;durP2;ratioP2;P2;SDS_P1;SDS_P2;PMS_P1;PMS_P2;Temp;Humidity;BMP_temperature;BMP_pressure;BME280_temperature;BME280_humidity;BME280_pressure;Samples;Min_cycle;Max_cycle;Signal;HPM_P1;HPM_P2
2021/01/30 00:02:06;;;;;;;7.68;6.43;;;0.40;97.10;;;;;;4970217;28;20050;-81
2021/01/30 00:04:32;;;;;;;7.45;5.82;;;0.40;97.20;;;;;;4979560;28;20035;-80
2021/01/30 00:07:01;;;;;;;7.32;6.05;;;0.50;97.20;;;;;;4976762;28;20479;-79
2021/01/30 00:09:27;;;;;;;5.18;4.63;;;0.50;97.10;;;;;;5000224;28;20046;-80
2021/01/30 00:11:56;;;;;;;6.07;4.25;;;0.50;97.10;;;;;;4979807;28;20153;-80
2021/01/30 00:14:24;;;;;;;5.63;4.38;;;0.50;97.20;;;;;;4981875;28;20034;-82
2021/01/30 00:16:51;;;;;;;5.43;4.07;;;0.50;97.00;;;;;;4983242;28;20050;-80
2021/01/30 00:19:17;;;;;;;5.60;4.65;;;0.50;97.00;;;;;;4978320;28;20057;-80
2021/01/30 00:21:54;;;;;;;7.35;4.55;;;0.50;97.00;;;;;;4991227;28;20043;-80
2021/01/30 00:24:23;;;;;;;6.13;4.15;;;0.50;97.10;;;;;;4981617;28;20452;-80
2021/01/30 00:26:54;;;;;;;5.68;4.57;;;0.50;97.00;;;;;;4974518;28;20041;-80
2021/01/30 00:29:21;;;;;;;6.15;4.13;;;0.50;97.10;;;;;;4971833;28;20042;-80
2021/01/30 00:31:47;;;;;;;4.38;3.80;;;0.50;97.10;;;;;;4978501;28;20181;-81
2021/01/30 00:34:15;;;;;;;6.82;4.55;;;0.50;97.00;;;;;;4991565;28;20041;-80
2021/01/30 00:36:41;;;;;;;6.05;4.43;;;0.50;96.90;;;;;;4982427;28;20458;-80
2021/01/30 00:39:07;;;;;;;4.97;4.03;;;0.50;96.80;;;;;;4982181;28;20093;-80
2021/01/30 00:41:33;;;;;;;6.45;4.43;;;0.50;96.80;;;;;;4983375;28;20049;-80
2021/01/30 00:44:00;;;;;;;6.32;4.63;;;0.60;97.20;;;;;;4987769;28;20046;-81
2021/01/30 00:46:27;;;;;;;5.85;4.40;;;0.60;97.30;;;;;;4992287;28;20054;-80
2021/01/30 00:48:53;;;;;;;5.90;5.03;;;0.60;97.30;;;;;;4974157;28;20026;-80
2021/01/30 00:51:20;;;;;;;6.25;4.60;;;0.50;97.20;;;;;;4979503;28;20062;-80
2021/01/30 00:53:46;;;;;;;6.18;5.07;;;0.60;97.30;;;;;;5000279;28;20188;-81
2021/01/30 00:56:13;;;;;;;6.38;4.60;;;0.50;97.00;;;;;;4987092;28;20037;-81
2021/01/30 00:58:40;;;;;;;6.70;5.45;;;0.60;97.10;;;;;;4983162;28;20161;-80
2021/01/30 01:01:06;;;;;;;8.20;5.55;;;0.60;97.00;;;;;;4976128;28;20076;-81
2021/01/30 01:03:32;;;;;;;5.65;4.60;;;0.60;97.40;;;;;;4985962;28;20047;-80
2021/01/30 01:05:59;;;;;;;7.90;5.40;;;0.70;96.80;;;;;;4982716;28;20047;-80
2021/01/30 01:08:26;;;;;;;7.80;5.47;;;0.60;96.90;;;;;;4977433;28;20031;-81
2021/01/30 01:10:53;;;;;;;9.18;6.80;;;0.60;97.10;;;;;;4992047;28;20067;-81
2021/01/30 01:13:26;;;;;;;7.75;5.30;;;0.60;97.20;;;;;;4980360;28;20133;-80
2021/01/30 01:15:52;;;;;;;7.75;6.00;;;0.60;97.30;;;;;;5003364;28;20038;-80
2021/01/30 01:18:17;;;;;;;6.93;5.47;;;0.60;96.60;;;;;;4996899;28;20046;-81
2021/01/30 01:20:43;;;;;;;7.20;5.53;;;0.60;96.90;;;;;;4976680;28;20046;-81
2021/01/30 01:23:10;;;;;;;6.88;5.10;;;0.60;97.00;;;;;;4977777;28;20038;-80
2021/01/30 01:25:36;;;;;;;9.93;5.55;;;0.60;96.40;;;;;;4994012;28;20042;-80
2021/01/30 01:28:36;;;;;;;12.85;5.93;;;0.60;96.40;;;;;;4994844;28;20130;-80
2021/01/30 01:31:02;;;;;;;6.70;5.40;;;0.60;96.60;;;;;;4994856;28;20062;-81
2021/01/30 01:33:30;;;;;;;7.97;6.10;;;0.60;96.60;;;;;;4981190;28;20075;-81
2021/01/30 01:35:56;;;;;;;7.03;6.13;;;0.60;96.60;;;;;;4977127;28;20065;-80
2021/01/30 01:38:23;;;;;;;8.77;6.18;;;0.60;96.60;;;;;;4966976;28;20079;-80
2021/01/30 01:40:48;;;;;;;9.15;6.10;;;0.60;96.60;;;;;;4976254;28;20046;-81
2021/01/30 01:43:21;;;;;;;12.40;7.18;;;0.50;96.70;;;;;;4976025;28;20041;-80
2021/01/30 01:46:10;;;;;;;8.57;6.20;;;0.50;96.70;;;;;;4975914;28;20046;-81
2021/01/30 01:48:54;;;;;;;9.63;6.43;;;0.60;96.90;;;;;;4989510;28;20066;-81
2021/01/30 01:51:29;;;;;;;8.95;6.25;;;0.50;96.80;;;;;;4966648;28;20201;-80
2021/01/30 01:54:00;;;;;;;9.45;6.43;;;0.40;97.00;;;;;;4989309;28;20051;-81
2021/01/30 01:56:29;;;;;;;10.82;6.00;;;0.40;96.90;;;;;;4990033;28;20376;-80
2021/01/30 01:59:02;;;;;;;10.52;6.47;;;0.40;97.10;;;;;;4993708;28;20042;-80
2021/01/30 02:01:30;;;;;;;8.77;7.30;;;0.40;96.90;;;;;;4994381;28;20073;-82
2021/01/30 02:03:57;;;;;;;11.05;7.07;;;0.40;97.00;;;;;;4994657;28;20743;-82
2021/01/30 02:06:24;;;;;;;10.63;6.57;;;0.40;97.10;;;;;;4980924;28;20550;-81
2021/01/30 02:08:51;;;;;;;9.93;7.30;;;0.40;97.00;;;;;;4979489;28;20039;-80
2021/01/30 02:11:19;;;;;;;8.43;6.47;;;0.30;96.90;;;;;;4975272;28;20046;-81
2021/01/30 02:13:50;;;;;;;11.68;6.97;;;0.30;97.00;;;;;;4996135;28;20141;-81
2021/01/30 02:16:58;;;;;;;10.68;7.15;;;0.20;97.20;;;;;;4981440;28;20050;-81
2021/01/30 02:20:12;;;;;;;9.27;7.45;;;0.30;97.10;;;;;;5002877;28;20065;-82
2021/01/30 02:23:07;;;;;;;10.98;7.38;;;0.30;97.20;;;;;;4984259;28;20073;-80
2021/01/30 02:26:09;;;;;;;11.85;7.30;;;0.20;97.20;;;;;;4985295;28;20430;-81
2021/01/30 02:29:20;;;;;;;11.60;7.88;;;0.20;97.20;;;;;;4981458;28;20046;-81
2021/01/30 02:32:07;;;;;;;12.25;7.47;;;0.20;97.30;;;;;;4998592;28;20038;-81
2021/01/30 02:34:55;;;;;;;9.13;7.45;;;0.20;97.40;;;;;;5001292;28;20026;-81
2021/01/30 02:37:31;;;;;;;11.07;7.80;;;0.20;97.50;;;;;;4991247;28;20455;-80
2021/01/30 02:40:20;;;;;;;12.48;7.65;;;0.30;97.50;;;;;;4995388;28;20058;-80
2021/01/30 02:43:05;;;;;;;11.45;7.50;;;0.40;97.40;;;;;;4998208;28;20037;-80
2021/01/30 02:45:36;;;;;;;12.73;8.15;;;0.30;96.80;;;;;;4990040;28;20142;-80
2021/01/30 02:48:10;;;;;;;11.38;8.13;;;0.30;97.10;;;;;;4979618;28;20043;-80
2021/01/30 02:50:45;;;;;;;13.00;8.13;;;0.30;96.80;;;;;;4998910;28;20038;-80
2021/01/30 02:53:38;;;;;;;10.95;8.63;;;0.30;96.90;;;;;;4985225;28;20301;-80
2021/01/30 02:56:05;;;;;;;9.98;8.00;;;0.30;97.00;;;;;;4985844;28;20035;-80
2021/01/30 02:58:43;;;;;;;11.70;8.85;;;0.30;97.00;;;;;;4984755;28;20046;-80
2021/01/30 03:01:10;;;;;;;10.00;7.97;;;0.30;97.10;;;;;;4979667;28;20046;-81
2021/01/30 03:03:36;;;;;;;9.75;7.57;;;0.30;97.10;;;;;;4996569;28;20614;-81
2021/01/30 03:06:18;;;;;;;10.50;7.13;;;0.30;97.10;;;;;;5005565;28;20058;-80
2021/01/30 03:09:10;;;;;;;12.48;7.95;;;0.30;97.00;;;;;;4983339;28;20046;-81
2021/01/30 03:11:51;;;;;;;11.30;7.70;;;0.30;96.80;;;;;;5002773;28;20129;-81
2021/01/30 03:14:21;;;;;;;12.25;7.60;;;0.30;96.80;;;;;;4988605;28;20057;-80
2021/01/30 03:16:49;;;;;;;10.43;8.15;;;0.20;96.70;;;;;;5005609;28;20057;-81
2021/01/30 03:19:23;;;;;;;10.15;8.18;;;0.20;96.80;;;;;;5002276;28;20101;-81
2021/01/30 03:22:01;;;;;;;12.48;8.23;;;0.30;96.80;;;;;;4988628;28;20387;-82
2021/01/30 03:24:28;;;;;;;13.77;8.38;;;0.20;96.80;;;;;;4985700;28;20157;-82
2021/01/30 03:26:54;;;;;;;12.52;8.90;;;0.30;96.70;;;;;;5008588;28;20157;-82
2021/01/30 03:29:33;;;;;;;8.50;6.65;;;0.30;96.60;;;;;;5009072;28;20064;-81
2021/01/30 03:31:58;;;;;;;12.25;7.55;;;0.30;96.70;;;;;;4969257;28;20058;-82
2021/01/30 03:34:24;;;;;;;11.60;8.05;;;0.30;96.40;;;;;;4993637;28;20112;-82
2021/01/30 03:36:50;;;;;;;11.60;9.55;;;0.40;96.30;;;;;;5002072;28;20090;-81
2021/01/30 03:39:18;;;;;;;10.40;8.63;;;0.40;96.30;;;;;;4981158;28;20170;-81
2021/01/30 03:41:45;;;;;;;11.68;8.63;;;0.40;96.20;;;;;;4987605;28;20434;-79
2021/01/30 03:44:13;;;;;;;10.40;8.07;;;0.40;96.40;;;;;;4973307;28;20097;-81
2021/01/30 03:46:40;;;;;;;13.20;9.20;;;0.40;96.80;;;;;;4999617;28;20045;-82
2021/01/30 03:49:06;;;;;;;13.40;9.57;;;0.40;96.50;;;;;;5019526;28;20043;-82
2021/01/30 03:51:32;;;;;;;12.18;9.63;;;0.40;96.50;;;;;;5014359;28;20053;-82
2021/01/30 03:53:58;;;;;;;14.15;10.00;;;0.40;96.90;;;;;;5005377;28;20039;-83
2021/01/30 03:56:25;;;;;;;13.85;9.98;;;0.50;96.90;;;;;;4998396;28;20035;-82
2021/01/30 03:58:51;;;;;;;13.90;10.35;;;0.50;96.80;;;;;;5004881;28;20038;-82
2021/01/30 04:01:17;;;;;;;14.38;10.15;;;0.50;96.70;;;;;;4998098;28;20113;-82
2021/01/30 04:03:47;;;;;;;15.25;9.73;;;0.50;96.40;;;;;;4998868;28;20050;-82
2021/01/30 04:06:14;;;;;;;13.80;10.20;;;0.50;96.70;;;;;;5010220;28;20034;-82
2021/01/30 04:08:41;;;;;;;14.98;9.98;;;0.50;96.20;;;;;;5000655;28;20069;-83
2021/01/30 04:11:07;;;;;;;15.65;10.57;;;0.50;96.40;;;;;;4987690;28;20053;-82
2021/01/30 04:13:33;;;;;;;13.90;10.65;;;0.60;96.40;;;;;;4983498;28;20023;-82
2021/01/30 04:19:41;;;;;;;13.82;9.45;;;0.50;96.10;;;;;;5015555;28;20028;-82
2021/01/30 04:22:07;;;;;;;13.27;9.48;;;0.40;95.90;;;;;;4989655;28;20077;-82
2021/01/30 04:24:33;;;;;;;14.02;9.15;;;0.60;96.10;;;;;;5000533;28;20058;-83
2021/01/30 04:26:59;;;;;;;11.70;9.10;;;0.40;96.10;;;;;;4994181;23;20049;-82
2021/01/30 04:29:25;;;;;;;14.60;10.18;;;0.50;95.90;;;;;;5021711;28;20084;-81
2021/01/30 04:31:56;;;;;;;14.80;11.10;;;0.40;96.20;;;;;;5013955;28;20398;-82
2021/01/30 04:34:21;;;;;;;14.80;9.43;;;0.50;96.40;;;;;;5022830;28;20168;-82
2021/01/30 04:36:47;;;;;;;13.82;11.23;;;0.50;96.30;;;;;;5017496;28;20120;-82
2021/01/30 04:39:13;;;;;;;18.65;10.73;;;0.50;96.20;;;;;;5011567;28;20053;-82
2021/01/30 04:41:56;;;;;;;14.25;10.30;;;0.40;96.50;;;;;;5022703;28;20069;-82
2021/01/30 04:44:47;;;;;;;16.95;10.85;;;0.40;96.50;;;;;;5019014;28;20134;-82
2021/01/30 04:47:22;;;;;;;15.35;10.80;;;0.40;96.60;;;;;;5003469;28;20067;-81
2021/01/30 04:50:14;;;;;;;12.90;10.48;;;0.40;96.60;;;;;;5022382;28;20034;-82
2021/01/30 04:52:52;;;;;;;15.68;10.25;;;0.40;96.70;;;;;;5010491;28;20045;-82
2021/01/30 04:55:23;;;;;;;18.02;11.32;;;0.40;96.60;;;;;;5004926;28;20093;-82
2021/01/30 04:58:08;;;;;;;15.15;11.20;;;0.30;96.30;;;;;;4999571;28;20061;-81
2021/01/30 05:00:34;;;;;;;12.25;8.85;;;0.40;96.20;;;;;;5002787;28;20061;-82
2021/01/30 05:03:11;;;;;;;13.40;9.10;;;0.40;96.10;;;;;;4996972;28;20077;-81
2021/01/30 05:05:40;;;;;;;14.57;9.57;;;0.30;96.10;;;;;;5015207;28;20061;-81
2021/01/30 05:08:23;;;;;;;14.50;10.10;;;0.30;96.10;;;;;;5000385;28;20557;-81
2021/01/30 05:11:12;;;;;;;14.30;10.25;;;0.30;96.20;;;;;;5023280;28;20042;-81
2021/01/30 05:13:47;;;;;;;13.48;10.15;;;0.30;96.40;;;;;;5012665;28;20068;-81
2021/01/30 05:16:20;;;;;;;14.82;11.13;;;0.30;96.60;;;;;;5023543;28;20042;-81
2021/01/30 05:18:58;;;;;;;15.45;9.32;;;0.30;96.50;;;;;;5017573;28;20050;-81
2021/01/30 05:21:39;;;;;;;11.93;8.77;;;0.30;96.40;;;;;;5021161;28;20041;-81
2021/01/30 05:24:08;;;;;;;15.77;10.60;;;0.30;96.10;;;;;;5019347;28;20088;-81
2021/01/30 05:26:47;;;;;;;12.32;8.77;;;0.30;96.40;;;;;;5022491;28;20058;-81
2021/01/30 05:29:47;;;;;;;13.57;9.15;;;0.30;96.50;;;;;;5015088;28;20050;-81
2021/01/30 05:32:29;;;;;;;13.30;10.25;;;0.40;96.30;;;;;;5020244;28;20482;-81
2021/01/30 05:35:23;;;;;;;12.35;9.70;;;0.40;96.40;;;;;;5021075;28;20067;-81
2021/01/30 05:38:21;;;;;;;14.25;9.75;;;0.40;96.30;;;;;;5011569;28;20387;-81
2021/01/30 05:41:00;;;;;;;16.70;10.50;;;0.30;96.40;;;;;;5010871;28;20054;-81
2021/01/30 05:43:37;;;;;;;13.15;10.77;;;0.20;96.30;;;;;;5011678;28;20454;-82
2021/01/30 05:46:05;;;;;;;14.73;11.30;;;0.20;96.40;;;;;;5016814;28;20048;-81
2021/01/30 05:48:35;;;;;;;13.43;10.95;;;0.20;96.50;;;;;;5026989;28;20090;-81
2021/01/30 05:51:18;;;;;;;16.00;12.13;;;0.10;96.50;;;;;;5018318;28;20721;-83
2021/01/30 05:53:45;;;;;;;16.25;11.68;;;0.10;96.60;;;;;;5028774;28;20067;-82
2021/01/30 05:56:11;;;;;;;15.70;11.52;;;0.00;96.60;;;;;;5000025;28;20042;-82
2021/01/30 05:58:42;;;;;;;18.00;11.88;;;0.00;96.60;;;;;;5021354;28;20513;-82
2021/01/30 06:01:16;;;;;;;19.33;12.77;;;0.00;96.70;;;;;;5018640;28;20041;-82
2021/01/30 06:04:02;;;;;;;15.18;11.90;;;0.00;96.70;;;;;;5005708;28;20088;-82
2021/01/30 06:06:37;;;;;;;19.13;12.48;;;0.10;96.80;;;;;;5019611;28;20116;-82
2021/01/30 06:09:11;;;;;;;;;;;0.10;96.90;;;;;;5007178;28;20053;-82
2021/01/30 06:11:49;;;;;;;17.40;12.15;;;0.10;96.60;;;;;;5016706;28;19924;-82
2021/01/30 06:14:39;;;;;;;15.38;11.40;;;0.10;96.80;;;;;;5013168;28;20064;-83
2021/01/30 06:17:37;;;;;;;17.90;12.20;;;0.20;96.80;;;;;;5014216;28;20046;-82
2021/01/30 06:20:22;;;;;;;17.27;11.40;;;0.20;96.70;;;;;;4930615;29;20059;-83
2021/01/30 06:23:07;;;;;;;16.17;11.30;;;0.20;96.70;;;;;;4923758;29;20560;-82
2021/01/30 06:25:35;;;;;;;14.63;11.27;;;0.20;96.60;;;;;;4931865;29;20051;-82
2021/01/30 06:28:09;;;;;;;14.68;11.40;;;0.20;96.80;;;;;;4906048;29;20106;-82
2021/01/30 06:30:40;;;;;;;17.47;11.00;;;0.20;96.40;;;;;;4930572;29;20067;-83
2021/01/30 06:33:29;;;;;;;16.63;10.95;;;0.20;96.60;;;;;;4924943;29;20519;-83
2021/01/30 06:36:07;;;;;;;14.50;10.43;;;0.30;96.50;;;;;;4931176;29;20103;-82
2021/01/30 06:38:39;;;;;;;10.93;9.23;;;0.20;96.40;;;;;;4909307;29;20052;-83
2021/01/30 06:41:12;;;;;;;14.20;9.77;;;0.30;96.30;;;;;;4931969;29;20057;-82
2021/01/30 06:43:47;;;;;;;11.82;8.80;;;0.30;96.20;;;;;;4926766;29;20052;-82
2021/01/30 06:46:16;;;;;;;10.65;7.75;;;0.30;96.00;;;;;;4931240;29;20063;-82
2021/01/30 06:48:47;;;;;;;13.05;9.25;;;0.30;95.50;;;;;;4924227;29;20090;-82
2021/01/30 06:51:40;;;;;;;14.27;9.43;;;0.20;95.70;;;;;;4913755;29;20040;-82
2021/01/30 06:54:27;;;;;;;14.88;9.07;;;0.30;95.50;;;;;;4923497;29;20561;-84
2021/01/30 06:56:59;;;;;;;10.88;8.20;;;0.30;95.10;;;;;;5025125;28;20034;-84
2021/01/30 07:00:17;;;;;;;9.38;7.57;;;0.30;95.30;;;;;;5004066;28;20052;-83
2021/01/30 07:03:52;;;;;;;12.60;7.68;;;0.20;94.80;;;;;;4966575;28;20142;-82
2021/01/30 07:06:42;;;;;;;11.55;7.70;;;0.20;94.90;;;;;;4945628;28;20051;-83
2021/01/30 07:10:14;;;;;;;;;;;;;;;;;;;;;
2021/01/30 07:17:12;;;;;;;11.13;8.32;;;0.10;94.80;;;;;;4947459;28;20086;-83
2021/01/30 07:19:56;;;;;;;12.43;8.30;;;0.00;94.70;;;;;;4926634;29;20076;-83
2021/01/30 07:27:20;;;;;;;12.07;9.48;;;-0.10;94.80;;;;;;4947301;29;20150;-83
2021/01/30 07:33:50;;;;;;;11.75;8.38;;;-0.20;95.10;;;;;;4943911;28;20051;-84
2021/01/30 07:36:26;;;;;;;10.27;8.65;;;-0.20;95.20;;;;;;4948233;28;20039;-84
2021/01/30 07:39:28;;;;;;;15.13;10.35;;;-0.20;95.30;;;;;;4965349;28;20051;-84
2021/01/30 07:42:09;;;;;;;14.73;9.05;;;-0.20;95.30;;;;;;4966796;28;20055;-84
2021/01/30 07:45:30;;;;;;;16.25;9.93;;;-0.30;95.30;;;;;;4964244;28;20058;-84
2021/01/30 07:53:20;;;;;;;13.23;8.70;;;-0.40;95.50;;;;;;5044040;28;20053;-83
2021/01/30 07:56:22;;;;;;;12.40;8.27;;;-0.40;95.60;;;;;;5047998;28;20041;-83
2021/01/30 07:59:09;;;;;;;13.18;8.60;;;-0.40;95.60;;;;;;5026905;28;20106;-83
2021/01/30 08:01:59;;;;;;;10.50;7.88;;;-0.50;95.70;;;;;;5027364;28;20045;-83
2021/01/30 08:05:03;;;;;;;10.88;8.02;;;-0.50;95.70;;;;;;5039474;28;20069;-84
2021/01/30 08:07:53;;;;;;;9.60;6.97;;;-0.50;95.50;;;;;;5051902;28;20049;-83
2021/01/30 08:10:40;;;;;;;12.05;8.55;;;-0.40;95.30;;;;;;5014052;28;20046;-85
2021/01/30 08:13:17;;;;;;;12.13;7.55;;;-0.50;95.60;;;;;;5014754;28;20085;-85
2021/01/30 08:16:01;;;;;;;;;;;-0.40;95.40;;;;;;4991379;28;20038;-85
2021/01/30 08:18:39;;;;;;;11.07;8.65;;;-0.50;94.90;;;;;;5019044;28;19966;-85
2021/01/30 08:21:11;;;;;;;12.38;10.20;;;-0.40;95.30;;;;;;4989440;28;20095;-85
2021/01/30 08:24:01;;;;;;;11.15;8.15;;;-0.40;95.40;;;;;;5015261;28;20053;-85
2021/01/30 08:26:30;;;;;;;13.45;8.48;;;-0.40;95.20;;;;;;4999267;28;20147;-86
2021/01/30 08:29:26;;;;;;;12.55;8.27;;;-0.40;95.20;;;;;;5014138;28;20067;-85
2021/01/30 08:32:25;;;;;;;12.35;8.48;;;-0.30;95.20;;;;;;5001149;28;20072;-82
2021/01/30 08:34:53;;;;;;;11.35;8.73;;;-0.20;95.00;;;;;;4974689;28;20090;-83
2021/01/30 08:37:19;;;;;;;14.30;9.38;;;-0.30;95.10;;;;;;4981084;28;20050;-83
2021/01/30 08:40:12;;;;;;;13.02;9.90;;;-0.20;95.10;;;;;;4979680;28;20039;-83
2021/01/30 08:43:00;;;;;;;14.27;8.98;;;-0.20;95.40;;;;;;4978476;28;20142;-82
2021/01/30 08:45:29;;;;;;;14.02;10.15;;;-0.20;95.50;;;;;;4981268;28;20086;-82
2021/01/30 08:47:55;;;;;;;14.60;10.80;;;-0.10;95.30;;;;;;4977649;28;20049;-82
2021/01/30 08:50:41;;;;;;;15.95;10.55;;;-0.10;95.40;;;;;;4984963;28;20074;-83
2021/01/30 08:53:30;;;;;;;14.07;10.38;;;-0.10;95.10;;;;;;4980806;28;20057;-82
2021/01/30 08:56:02;;;;;;;14.27;10.90;;;-0.10;95.30;;;;;;4971282;28;20038;-82
2021/01/30 08:58:36;;;;;;;13.57;10.25;;;-0.10;95.20;;;;;;4993830;28;20055;-82
2021/01/30 09:01:10;;;;;;;13.75;10.63;;;-0.10;95.20;;;;;;4975595;28;20081;-83
2021/01/30 09:03:50;;;;;;;10.50;8.70;;;-0.10;95.00;;;;;;4975849;28;20162;-82
2021/01/30 09:06:49;;;;;;;10.93;9.40;;;-0.10;94.50;;;;;;5000916;28;20065;-82
2021/01/30 09:09:21;;;;;;;12.95;9.73;;;-0.10;94.40;;;;;;4964780;28;20094;-83
2021/01/30 09:12:33;;;;;;;17.33;11.25;;;-0.10;94.50;;;;;;5037720;28;20119;-82
2021/01/30 09:14:59;;;;;;;12.00;8.23;;;0.00;94.30;;;;;;5031370;28;20070;-82
2021/01/30 09:17:33;;;;;;;12.82;9.38;;;0.00;94.30;;;;;;5040127;28;20064;-82
2021/01/30 09:20:13;;;;;;;14.30;11.07;;;0.00;94.60;;;;;;5036751;28;20053;-82
2021/01/30 09:22:57;;;;;;;11.77;9.15;;;0.10;94.30;;;;;;5042228;28;20061;-82
2021/01/30 09:25:52;;;;;;;12.05;10.63;;;0.10;94.60;;;;;;5023076;28;20049;-82
2021/01/30 09:28:27;;;;;;;12.85;9.60;;;0.20;94.80;;;;;;5041444;28;20053;-82
2021/01/30 09:31:06;;;;;;;14.50;10.98;;;0.20;94.30;;;;;;5036684;28;20042;-82
2021/01/30 09:34:29;;;;;;;14.40;10.65;;;0.20;94.40;;;;;;5038515;28;20046;-83
2021/01/30 09:36:55;;;;;;;15.02;11.20;;;0.20;94.50;;;;;;5035017;28;20068;-82
2021/01/30 09:39:34;;;;;;;14.57;11.10;;;0.30;94.30;;;;;;5035557;28;20038;-82
2021/01/30 09:42:15;;;;;;;13.63;10.38;;;0.30;94.40;;;;;;5027353;28;20160;-82
2021/01/30 09:44:41;;;;;;;14.50;11.48;;;0.30;94.20;;;;;;5030234;28;20041;-82
2021/01/30 09:47:15;;;;;;;15.25;11.65;;;0.30;94.40;;;;;;5037358;28;20033;-82
2021/01/30 09:49:42;;;;;;;13.10;11.10;;;0.30;94.70;;;;;;5032019;28;20068;-82
2021/01/30 09:52:09;;;;;;;14.30;10.88;;;0.30;94.50;;;;;;5041667;28;20124;-82
2021/01/30 09:54:36;;;;;;;14.40;11.77;;;0.40;94.90;;;;;;5033843;28;20145;-82
2021/01/30 09:57:08;;;;;;;15.77;11.55;;;0.40;95.00;;;;;;5053678;28;20045;-82
2021/01/30 09:59:35;;;;;;;14.85;11.77;;;0.40;94.50;;;;;;5039416;28;20044;-82
2021/01/30 10:02:16;;;;;;;13.75;10.77;;;0.40;94.50;;;;;;5051877;28;20086;-83
2021/01/30 10:04:43;;;;;;;12.68;10.43;;;0.50;94.40;;;;;;5051315;28;20029;-83
2021/01/30 10:07:11;;;;;;;12.85;9.48;;;0.50;94.20;;;;;;5050754;28;20064;-83
2021/01/30 10:09:49;;;;;;;10.73;9.25;;;0.50;94.30;;;;;;5031750;28;20621;-83
2021/01/30 10:12:20;;;;;;;14.07;10.80;;;0.50;93.80;;;;;;5035924;28;20067;-83
2021/01/30 10:14:49;;;;;;;12.65;10.40;;;0.50;94.10;;;;;;5046368;28;20040;-83
2021/01/30 10:17:21;;;;;;;16.88;12.07;;;0.40;94.50;;;;;;5045073;28;20068;-84
2021/01/30 10:19:59;;;;;;;11.75;10.45;;;0.50;94.40;;;;;;5044996;28;20098;-82
2021/01/30 10:22:34;;;;;;;13.13;10.65;;;0.60;94.50;;;;;;5012585;28;20064;-82
2021/01/30 10:25:04;;;;;;;15.05;11.60;;;0.70;94.10;;;;;;5027883;28;20109;-82
2021/01/30 10:27:31;;;;;;;13.00;11.30;;;0.70;93.50;;;;;;5032634;28;20053;-82
2021/01/30 10:29:58;;;;;;;14.23;10.52;;;0.70;93.20;;;;;;5036278;28;20049;-83
2021/01/30 10:32:48;;;;;;;16.00;12.52;;;0.70;93.50;;;;;;5030626;28;20512;-83
2021/01/30 10:35:37;;;;;;;12.48;9.93;;;0.70;93.80;;;;;;5048659;28;20041;-85
2021/01/30 10:38:15;;;;;;;16.05;12.32;;;0.80;93.20;;;;;;5023339;28;20041;-84
2021/01/30 10:40:49;;;;;;;15.27;13.02;;;0.80;93.60;;;;;;5033231;28;20041;-87
2021/01/30 10:43:37;;;;;;;16.00;13.23;;;0.80;93.50;;;;;;5030004;28;20045;-86
2021/01/30 10:46:14;;;;;;;16.10;13.57;;;0.80;93.20;;;;;;5040895;28;20056;-86
2021/01/30 10:48:41;;;;;;;18.92;13.32;;;0.80;93.20;;;;;;5022001;28;20037;-85
2021/01/30 10:51:15;;;;;;;15.15;12.15;;;0.90;93.60;;;;;;5044736;28;20057;-85
2021/01/30 10:53:42;;;;;;;16.40;14.13;;;1.00;93.40;;;;;;5039647;28;20067;-84
2021/01/30 10:56:15;;;;;;;15.15;13.60;;;1.10;93.00;;;;;;5031215;28;20099;-86
2021/01/30 10:58:42;;;;;;;15.77;12.38;;;1.30;93.30;;;;;;5041453;28;20050;-86
2021/01/30 11:01:11;;;;;;;11.52;9.95;;;1.30;92.70;;;;;;5049151;28;20100;-83
2021/01/30 11:03:49;;;;;;;14.27;12.77;;;1.30;91.90;;;;;;5032492;28;20377;-84
2021/01/30 11:06:36;;;;;;;16.55;12.80;;;1.30;92.20;;;;;;5038017;28;20054;-85
2021/01/30 11:09:01;;;;;;;16.20;13.07;;;1.30;92.50;;;;;;5037896;28;20049;-83
2021/01/30 11:11:31;;;;;;;16.20;12.70;;;1.30;92.30;;;;;;5052032;28;20043;-82
2021/01/30 11:13:58;;;;;;;14.75;12.02;;;1.20;92.20;;;;;;5036915;28;20061;-82
2021/01/30 11:16:36;;;;;;;14.18;11.90;;;1.20;92.90;;;;;;5040397;28;20053;-84
2021/01/30 11:19:18;;;;;;;14.77;12.60;;;1.20;92.60;;;;;;5046346;28;20045;-83
2021/01/30 11:21:43;;;;;;;14.13;11.98;;;1.20;92.50;;;;;;5054840;28;20044;-83
2021/01/30 11:24:32;;;;;;;12.88;10.93;;;1.20;93.30;;;;;;5039867;28;20042;-82
2021/01/30 11:26:58;;;;;;;12.30;10.75;;;1.30;92.70;;;;;;5041890;28;20048;-82
2021/01/30 11:29:36;;;;;;;12.68;9.57;;;1.40;92.30;;;;;;5028991;28;20136;-85
2021/01/30 11:32:06;;;;;;;12.15;9.85;;;1.40;91.60;;;;;;5028947;28;20049;-81
2021/01/30 11:34:33;;;;;;;12.43;10.80;;;1.40;91.90;;;;;;5032627;28;20476;-81
2021/01/30 11:37:01;;;;;;;13.90;11.50;;;1.40;91.70;;;;;;5049801;28;20033;-84
2021/01/30 11:39:33;;;;;;;13.88;11.35;;;1.40;91.70;;;;;;5033931;28;20550;-84
2021/01/30 11:41:59;;;;;;;13.35;9.55;;;1.40;91.70;;;;;;5037088;28;20119;-84
2021/01/30 11:44:26;;;;;;;11.70;9.45;;;1.30;91.50;;;;;;5047404;28;20060;-85
2021/01/30 11:46:53;;;;;;;12.43;10.90;;;1.30;91.50;;;;;;5054807;28;20120;-84
2021/01/30 11:49:20;;;;;;;10.77;9.02;;;1.30;91.30;;;;;;5022424;28;20065;-81
2021/01/30 11:51:46;;;;;;;12.90;10.82;;;1.30;91.10;;;;;;5025133;28;20498;-81
2021/01/30 11:54:12;;;;;;;14.40;10.77;;;1.20;90.90;;;;;;5031911;28;20781;-82
2021/01/30 11:56:39;;;;;;;12.02;10.00;;;1.10;91.00;;;;;;5030470;28;20041;-82
2021/01/30 11:59:06;;;;;;;18.67;10.95;;;1.10;91.00;;;;;;5034711;28;20474;-82
2021/01/30 12:01:32;;;;;;;12.55;9.60;;;1.00;91.70;;;;;;5026138;28;20443;-83
2021/01/30 12:04:01;;;;;;;14.10;12.15;;;1.00;91.70;;;;;;5030962;28;20073;-83
2021/01/30 12:06:27;;;;;;;12.45;10.18;;;1.00;91.80;;;;;;5027377;28;20049;-82
2021/01/30 12:08:53;;;;;;;13.45;11.60;;;1.00;91.20;;;;;;5035173;28;20396;-82
2021/01/30 12:11:20;;;;;;;14.43;11.50;;;0.90;90.60;;;;;;5029435;28;20037;-81
2021/01/30 12:13:46;;;;;;;15.45;12.90;;;0.80;90.70;;;;;;5031205;28;20061;-81
2021/01/30 12:16:13;;;;;;;13.43;12.00;;;0.80;91.40;;;;;;5027996;28;20057;-80
2021/01/30 12:18:40;;;;;;;14.75;12.25;;;0.80;91.80;;;;;;5036542;28;20041;-81
2021/01/30 12:21:08;;;;;;;15.30;12.68;;;0.80;91.60;;;;;;5024673;28;20057;-80
2021/01/30 12:23:35;;;;;;;14.70;12.98;;;0.90;91.50;;;;;;5024854;28;20049;-77
2021/01/30 12:26:01;;;;;;;14.80;11.95;;;0.80;91.60;;;;;;5017335;28;20119;-79
2021/01/30 12:28:34;;;;;;;15.07;13.32;;;0.80;90.70;;;;;;5030088;28;20049;-80
2021/01/30 12:31:02;;;;;;;14.88;13.27;;;0.70;91.40;;;;;;5027282;28;20038;-82
2021/01/30 12:33:28;;;;;;;14.65;12.90;;;0.80;91.30;;;;;;5027795;28;20056;-81
2021/01/30 12:35:55;;;;;;;13.05;11.35;;;0.80;91.50;;;;;;5031809;28;20042;-81
2021/01/30 12:38:24;;;;;;;17.92;14.40;;;0.80;91.20;;;;;;5029234;28;20050;-81
2021/01/30 12:40:52;;;;;;;16.35;13.98;;;0.70;91.30;;;;;;5032406;28;20057;-82
2021/01/30 12:43:21;;;;;;;16.08;13.50;;;0.70;91.20;;;;;;5020693;28;20434;-81
2021/01/30 12:45:48;;;;;;;17.10;13.48;;;0.80;91.50;;;;;;5027470;28;20041;-81
2021/01/30 12:48:15;;;;;;;17.15;13.70;;;0.80;91.60;;;;;;5012769;28;20065;-81
2021/01/30 12:50:42;;;;;;;18.05;13.88;;;0.80;91.20;;;;;;5031798;28;20069;-81
2021/01/30 12:53:08;;;;;;;17.48;15.20;;;0.70;91.20;;;;;;5030876;28;20458;-81
2021/01/30 12:55:34;;;;;;;21.85;15.70;;;0.80;91.70;;;;;;5026921;28;20065;-81
2021/01/30 12:58:14;;;;;;;17.90;15.07;;;0.80;91.50;;;;;;5028329;28;20075;-82
2021/01/30 13:00:40;;;;;;;19.30;15.88;;;0.80;92.00;;;;;;5026120;28;20050;-81
2021/01/30 13:03:06;;;;;;;17.45;13.25;;;0.90;92.00;;;;;;5026072;28;20116;-81
2021/01/30 13:05:32;;;;;;;17.65;13.90;;;0.90;91.80;;;;;;5034648;28;20057;-81
2021/01/30 13:07:58;;;;;;;19.45;13.52;;;0.90;91.70;;;;;;5029431;28;20466;-81
2021/01/30 13:10:24;;;;;;;16.52;13.88;;;0.90;91.80;;;;;;5026091;28;20038;-82
2021/01/30 13:12:50;;;;;;;16.33;12.57;;;0.80;91.70;;;;;;5024860;28;20056;-81
2021/01/30 13:15:16;;;;;;;16.00;12.05;;;0.80;91.60;;;;;;5034780;28;20038;-81
2021/01/30 13:17:43;;;;;;;16.10;12.90;;;0.80;91.20;;;;;;5031484;28;20050;-83
2021/01/30 13:20:09;;;;;;;17.83;13.90;;;0.80;91.70;;;;;;5025516;28;20093;-83
2021/01/30 13:22:35;;;;;;;13.18;11.15;;;0.90;91.80;;;;;;5032316;28;20529;-83
2021/01/30 13:25:03;;;;;;;14.95;12.40;;;0.80;91.50;;;;;;5024864;28;20095;-82
2021/01/30 13:27:29;;;;;;;14.23;11.73;;;0.80;91.80;;;;;;5032094;28;20148;-83
2021/01/30 13:29:55;;;;;;;15.80;12.05;;;0.80;91.20;;;;;;5027120;28;20042;-83
2021/01/30 13:32:20;;;;;;;15.05;12.02;;;0.80;91.40;;;;;;5035122;28;20088;-83
2021/01/30 13:34:46;;;;;;;17.40;12.63;;;0.80;91.60;;;;;;5024354;28;20048;-83
2021/01/30 13:37:12;;;;;;;14.55;12.60;;;0.80;92.00;;;;;;5018237;28;20076;-83
2021/01/30 13:39:38;;;;;;;13.45;11.75;;;0.90;91.90;;;;;;5021950;28;20109;-83
2021/01/30 13:42:04;;;;;;;14.98;11.75;;;0.90;91.90;;;;;;5024888;28;20076;-82
2021/01/30 13:44:31;;;;;;;14.20;11.90;;;0.90;91.70;;;;;;5019755;28;20397;-82
2021/01/30 13:46:57;;;;;;;10.77;9.52;;;0.80;91.60;;;;;;5027402;28;20137;-82